Tahoma, CA

7:53 PM PST on February 07, 2016 (GMT -0800)
Rubicon Bay South | | Change Station
CLOSE
Current Station
Personal Weather Station
Location: Rubicon Bay, CA
Elevation: 6475 ft
Nearby Weather Stations

Elev 6475 ft 39.01 °N, 120.12 °W | Updated 8 seconds ago

Clear
Clear
37.8 °F
Feels Like 38 °F
N
3.0
Wind Variable Wind from SSW
Gusts 5.0 mph

Today
High -- | Low -- °F
--% Chance of Precip.
Yesterday
High -- | Low -- °F
Precip. -- in
Pressure 30.57 in
Visibility 10.0 miles
Clouds Clear
Windchill 38 °F
Dew Point 28 °F
Humidity 68%
Rainfall 0.00 in
Snow Depth Not available.
7:01 AM 5:28 PM
Waning Crescent, 0% visible
METAR KTVL 080253Z AUTO 00000KT 10SM CLR 02/M04 A3051 RMK AO2 SLP350 T00221039 51013
Pressure 30.57 in
Visibility 10.0 miles
Clouds Clear
Windchill 38 °F
Dew Point 28 °F
Humidity 68%
Rainfall 0.00 in
Snow Depth Not available.
7:01 AM 5:28 PM
Waning Crescent, 0% visible
METAR KTVL 080253Z AUTO 00000KT 10SM CLR 02/M04 A3051 RMK AO2 SLP350 T00221039 51013

10-Day Weather Forecast

Almanac

Astronomy

Feb. 07, 2016 Rise Set
Actual Time
Civil Twilight
Nautical Twilight
Astronomical Twilight
Moon
Length of Visible Light
Length of Day
Tomorrow will be .
, % of the Moon is Illuminated

Today's Extremes

State Highs State Lows

Community

WunderPhotos

Upload Photos

1,891,373 photos uploaded!

WunderBlog® & News

Nearby

Air Quality

  Air Quality AQ Index Pollutant
Not available.

Snow Depth

Station Depth Elevation

Earthquake Activity

City Distance Mag. Time & Date
Minimum magnitude displayed is 2.5.

Coastal Water Temperatures

Place Temperature

Stations

Nearby Weather Stations

Station Location Temp. Windchill Dew Point Humidity Wind Precip. Elev Updated Type
                   

Watches & Warnings

There are currently no watches in effect.